createdAt,value
2022-12-20T00:01:24.465Z,80.76
2022-12-20T00:06:26.726Z,81.23
2022-12-20T00:11:28.961Z,81.40
2022-12-20T00:16:30.855Z,80.91
2022-12-20T00:21:34.267Z,79.94
2022-12-20T00:26:36.323Z,77.51
2022-12-20T00:31:38.051Z,77.17
2022-12-20T00:36:40.173Z,77.90
2022-12-20T00:41:42.814Z,79.15
2022-12-20T00:46:44.484Z,79.36
2022-12-20T00:51:46.364Z,79.33
2022-12-20T00:56:48.001Z,79.20
2022-12-20T01:01:49.716Z,78.92
2022-12-20T01:06:51.397Z,79.48
2022-12-20T01:11:53.367Z,79.36
2022-12-20T01:16:55.098Z,78.65
2022-12-20T01:21:56.836Z,78.95
2022-12-20T01:26:58.735Z,78.56
2022-12-20T01:32:01.086Z,78.44
2022-12-20T01:37:03.193Z,78.46
2022-12-20T01:42:05.410Z,77.66
2022-12-20T01:47:07.566Z,76.91
2022-12-20T01:52:13.104Z,76.51
2022-12-20T01:57:18.845Z,76.92
2022-12-20T02:02:20.522Z,77.03
2022-12-20T02:07:29.612Z,76.38
2022-12-20T02:12:41.356Z,76.88
2022-12-20T02:17:51.901Z,77.20
2022-12-20T02:23:15.569Z,78.38
2022-12-20T02:28:55.511Z,78.77
2022-12-20T02:33:58.769Z,78.82
2022-12-20T02:39:00.411Z,79.45
2022-12-20T02:44:09.276Z,79.54
2022-12-20T02:49:16.520Z,79.60
2022-12-20T02:54:19.217Z,79.43
2022-12-20T02:59:27.762Z,78.86
2022-12-20T03:04:34.794Z,79.21
2022-12-20T03:09:40.379Z,78.88
2022-12-20T03:14:42.459Z,79.19
2022-12-20T03:19:45.528Z,79.79
2022-12-20T03:24:47.226Z,79.91
2022-12-20T03:29:49.056Z,80.22
2022-12-20T03:34:51.306Z,80.22
2022-12-20T03:40:01.734Z,80.20
2022-12-20T03:45:04.159Z,80.01
2022-12-20T03:50:07.375Z,79.34
2022-12-20T03:55:10.577Z,80.09
2022-12-20T04:00:15.816Z,79.97
2022-12-20T04:05:21.324Z,80.15
2022-12-20T04:10:23.416Z,79.97
2022-12-20T04:15:25.394Z,80.56
2022-12-20T04:20:28.196Z,80.16
2022-12-20T04:25:44.351Z,80.33
2022-12-20T04:30:46.393Z,80.75
2022-12-20T04:35:55.319Z,80.70
2022-12-20T04:40:59.257Z,80.93
2022-12-20T04:46:05.346Z,80.93
2022-12-20T04:51:07.113Z,81.23
2022-12-20T04:56:09.638Z,81.49
2022-12-20T05:01:12.105Z,81.15
2022-12-20T05:06:20.855Z,81.30
2022-12-20T05:11:22.633Z,81.09
2022-12-20T05:16:25.614Z,81.41
2022-12-20T05:21:28.009Z,81.53
2022-12-20T05:26:33.266Z,80.97
2022-12-20T05:31:35.927Z,82.06
2022-12-20T05:36:38.381Z,81.31
2022-12-20T05:41:41.949Z,81.44
2022-12-20T05:46:45.014Z,81.20
2022-12-20T05:51:51.943Z,81.37
2022-12-20T05:56:59.264Z,81.54
2022-12-20T06:02:09.040Z,81.50
2022-12-20T06:07:11.592Z,82.15
2022-12-20T06:12:13.177Z,81.98
2022-12-20T06:17:15.595Z,82.03
2022-12-20T06:22:18.338Z,81.72
2022-12-20T06:27:24.358Z,81.53
2022-12-20T06:32:35.680Z,80.67
2022-12-20T06:37:41.484Z,80.40
2022-12-20T06:42:43.230Z,80.64
2022-12-20T06:47:47.547Z,81.29
2022-12-20T06:52:49.240Z,81.28
2022-12-20T06:57:51.558Z,81.14
2022-12-20T07:02:55.692Z,80.60
2022-12-20T07:07:58.755Z,81.03
2022-12-20T07:13:00.417Z,80.67
2022-12-20T07:18:02.213Z,79.65
2022-12-20T07:23:03.985Z,80.49
2022-12-20T07:28:05.619Z,80.29
2022-12-20T07:33:07.218Z,80.37
2022-12-20T07:38:09.396Z,80.72
2022-12-20T07:43:11.057Z,81.04
2022-12-20T07:48:16.306Z,81.16
2022-12-20T07:53:25.456Z,80.87
2022-12-20T07:58:32.686Z,81.42
2022-12-20T08:09:13.112Z,80.98
2022-12-20T08:14:17.368Z,81.14
2022-12-20T08:48:03.859Z,79.79
2022-12-20T08:53:05.423Z,80.28
2022-12-20T08:58:07.005Z,80.80
2022-12-20T09:03:08.751Z,80.79
2022-12-20T09:08:15.446Z,80.52
2022-12-20T09:13:17.089Z,80.22
2022-12-20T09:18:18.966Z,79.98
2022-12-20T09:23:20.728Z,80.22
2022-12-20T09:28:23.097Z,80.15
2022-12-20T09:33:24.671Z,80.25
2022-12-20T09:38:27.543Z,80.25
2022-12-20T09:43:30.487Z,80.52
2022-12-20T09:48:35.255Z,80.64
2022-12-20T09:54:17.301Z,80.94
2022-12-20T09:59:22.553Z,80.27
2022-12-20T10:04:30.724Z,80.18
2022-12-20T10:09:38.331Z,80.11
2022-12-20T10:15:18.992Z,80.36
2022-12-20T10:20:37.870Z,80.08
2022-12-20T10:25:41.083Z,79.79
2022-12-20T10:30:43.551Z,80.20
2022-12-20T10:35:45.349Z,80.69
2022-12-20T10:41:23.911Z,80.56
2022-12-20T10:46:37.243Z,79.70
2022-12-20T10:51:51.290Z,79.40
2022-12-20T10:57:15.015Z,79.13
2022-12-20T11:02:41.526Z,79.06
2022-12-20T11:13:34.124Z,78.78
2022-12-20T11:18:50.963Z,76.58
2022-12-20T11:24:02.792Z,77.01
2022-12-20T11:29:21.375Z,75.96
2022-12-20T11:34:50.818Z,75.48
2022-12-20T11:40:17.208Z,74.62
2022-12-20T11:45:26.115Z,75.16
2022-12-20T11:51:21.332Z,74.41
2022-12-20T11:56:44.515Z,75.34
2022-12-20T12:01:50.528Z,75.34
2022-12-20T12:06:59.801Z,76.49
2022-12-20T12:12:09.972Z,77.58
2022-12-20T12:17:26.281Z,77.59
2022-12-20T12:22:34.380Z,77.72
2022-12-20T12:27:36.075Z,77.56
2022-12-20T12:32:54.595Z,78.50
2022-12-20T12:38:34.762Z,78.39
2022-12-20T12:43:46.704Z,78.86
2022-12-20T12:48:58.342Z,79.02
2022-12-20T12:54:09.098Z,77.00
2022-12-20T12:59:16.767Z,77.06
2022-12-20T13:04:18.167Z,77.43
2022-12-20T13:09:25.899Z,76.46
2022-12-20T13:14:27.352Z,76.68
2022-12-20T13:19:28.811Z,76.90
2022-12-20T13:24:56.767Z,77.23
2022-12-20T13:30:07.616Z,76.15
2022-12-20T13:35:24.750Z,75.87
2022-12-20T13:40:36.639Z,76.55
2022-12-20T13:45:43.427Z,76.93
2022-12-20T13:50:54.328Z,76.75
2022-12-20T13:55:56.278Z,76.82
2022-12-20T14:01:06.432Z,76.54
2022-12-20T14:06:13.331Z,76.30
2022-12-20T14:11:18.125Z,76.93
2022-12-20T14:16:20.277Z,76.99
2022-12-20T14:21:22.278Z,77.41
2022-12-20T14:26:42.890Z,78.04
2022-12-20T14:31:47.329Z,78.59
2022-12-20T14:36:50.003Z,78.39
2022-12-20T14:42:06.794Z,78.69
2022-12-20T14:47:18.148Z,78.94
2022-12-20T14:52:39.064Z,79.11
2022-12-20T14:57:46.396Z,79.80
2022-12-20T15:02:56.177Z,80.01
2022-12-20T15:08:15.462Z,80.09
2022-12-20T15:13:18.772Z,79.55
2022-12-20T15:18:21.423Z,79.93
2022-12-20T15:23:23.106Z,80.11
2022-12-20T15:28:26.406Z,80.03
2022-12-20T15:33:32.410Z,79.65
2022-12-20T15:38:55.209Z,80.07
2022-12-20T15:43:58.367Z,79.56
2022-12-20T15:49:00.187Z,78.96
2022-12-20T15:54:05.057Z,77.87
2022-12-20T15:59:24.844Z,77.47
2022-12-20T16:04:28.355Z,77.23
2022-12-20T16:09:29.964Z,77.98
2022-12-20T16:14:31.530Z,78.77
2022-12-20T16:19:33.115Z,78.46
2022-12-20T16:24:34.651Z,78.68
2022-12-20T16:29:36.383Z,78.97
2022-12-20T16:34:38.041Z,80.44
2022-12-20T16:39:40.270Z,80.71
2022-12-20T16:44:42.301Z,80.87
2022-12-20T16:49:51.873Z,80.88
2022-12-20T16:54:54.731Z,81.02
2022-12-20T16:59:56.450Z,81.53
2022-12-20T17:04:58.999Z,81.83
2022-12-20T17:10:00.565Z,81.36
2022-12-20T17:15:02.177Z,81.68
2022-12-20T17:20:03.966Z,81.83
2022-12-20T17:25:05.807Z,81.23
2022-12-20T17:30:08.065Z,80.34
2022-12-20T17:35:28.451Z,79.78
2022-12-20T17:40:30.029Z,77.55
2022-12-20T17:45:33.724Z,76.42
2022-12-20T17:50:35.372Z,77.12
2022-12-20T17:55:37.017Z,77.27
2022-12-20T18:00:39.629Z,76.33
2022-12-20T18:05:41.464Z,76.96
2022-12-20T18:10:43.036Z,78.02
2022-12-20T18:15:44.642Z,78.54
2022-12-20T18:20:46.282Z,79.28
2022-12-20T18:25:47.955Z,79.21
2022-12-20T18:30:49.521Z,79.82
2022-12-20T18:36:04.061Z,80.38
2022-12-20T18:41:07.697Z,80.21
2022-12-20T18:46:11.893Z,81.03
2022-12-20T18:56:57.164Z,80.99
2022-12-20T19:02:01.814Z,81.10
2022-12-20T19:23:53.644Z,81.11
2022-12-20T19:46:09.731Z,80.72
2022-12-20T19:51:13.594Z,78.03
2022-12-20T20:39:26.856Z,78.89
2022-12-20T21:11:14.114Z,79.70
2022-12-20T21:37:51.957Z,80.16
2022-12-20T21:59:34.895Z,80.96
2022-12-20T22:04:36.580Z,80.43
2022-12-20T22:36:25.826Z,79.28
2022-12-20T23:08:33.832Z,79.06
2022-12-20T23:53:15.020Z,73.34
